sensor_id;sensor_type;location;lat;lon;timestamp;P1;durP1;ratioP1;P2;durP2;ratioP2
13222;SDS011;6676;45.192;5.722;2023-07-20T00:01:15;3.58;;;1.62;;
13222;SDS011;6676;45.192;5.722;2023-07-20T00:04:06;3.15;;;1.70;;
13222;SDS011;6676;45.192;5.722;2023-07-20T00:06:58;2.77;;;1.65;;
13222;SDS011;6676;45.192;5.722;2023-07-20T00:09:49;3.62;;;1.60;;
13222;SDS011;6676;45.192;5.722;2023-07-20T00:12:41;3.05;;;1.60;;
13222;SDS011;6676;45.192;5.722;2023-07-20T00:15:34;3.87;;;1.87;;
13222;SDS011;6676;45.192;5.722;2023-07-20T00:18:26;1.60;;;1.30;;
13222;SDS011;6676;45.192;5.722;2023-07-20T00:21:17;3.12;;;1.92;;
13222;SDS011;6676;45.192;5.722;2023-07-20T00:24:08;4.42;;;1.82;;
13222;SDS011;6676;45.192;5.722;2023-07-20T00:26:59;2.58;;;1.77;;
13222;SDS011;6676;45.192;5.722;2023-07-20T00:29:43;4.15;;;1.80;;
13222;SDS011;6676;45.192;5.722;2023-07-20T00:32:34;2.20;;;1.72;;
13222;SDS011;6676;45.192;5.722;2023-07-20T00:35:27;3.85;;;1.85;;
13222;SDS011;6676;45.192;5.722;2023-07-20T00:38:20;3.65;;;1.98;;
13222;SDS011;6676;45.192;5.722;2023-07-20T00:41:11;2.27;;;1.35;;
13222;SDS011;6676;45.192;5.722;2023-07-20T00:44:06;2.55;;;1.90;;
13222;SDS011;6676;45.192;5.722;2023-07-20T00:46:58;2.47;;;1.90;;
13222;SDS011;6676;45.192;5.722;2023-07-20T00:49:38;2.00;;;1.57;;
13222;SDS011;6676;45.192;5.722;2023-07-20T00:55:10;2.95;;;1.80;;
13222;SDS011;6676;45.192;5.722;2023-07-20T00:58:02;3.15;;;1.92;;
13222;SDS011;6676;45.192;5.722;2023-07-20T01:00:55;3.87;;;1.95;;
13222;SDS011;6676;45.192;5.722;2023-07-20T01:03:46;4.65;;;2.17;;
13222;SDS011;6676;45.192;5.722;2023-07-20T01:06:41;4.92;;;2.00;;
13222;SDS011;6676;45.192;5.722;2023-07-20T01:12:30;6.58;;;2.00;;
13222;SDS011;6676;45.192;5.722;2023-07-20T01:15:10;3.33;;;1.90;;
13222;SDS011;6676;45.192;5.722;2023-07-20T01:18:01;3.08;;;2.27;;
13222;SDS011;6676;45.192;5.722;2023-07-20T01:20:53;3.25;;;2.35;;
13222;SDS011;6676;45.192;5.722;2023-07-20T01:23:54;2.52;;;1.80;;
13222;SDS011;6676;45.192;5.722;2023-07-20T01:27:04;3.65;;;2.08;;
13222;SDS011;6676;45.192;5.722;2023-07-20T01:33:04;3.90;;;2.02;;
13222;SDS011;6676;45.192;5.722;2023-07-20T01:35:57;3.47;;;2.30;;
13222;SDS011;6676;45.192;5.722;2023-07-20T01:38:50;4.17;;;1.82;;
13222;SDS011;6676;45.192;5.722;2023-07-20T01:41:42;3.50;;;2.05;;
13222;SDS011;6676;45.192;5.722;2023-07-20T01:44:35;2.87;;;1.98;;
13222;SDS011;6676;45.192;5.722;2023-07-20T01:47:28;2.70;;;1.95;;
13222;SDS011;6676;45.192;5.722;2023-07-20T01:50:20;4.47;;;2.05;;
13222;SDS011;6676;45.192;5.722;2023-07-20T01:53:13;3.85;;;2.17;;
13222;SDS011;6676;45.192;5.722;2023-07-20T01:56:04;3.42;;;1.98;;
13222;SDS011;6676;45.192;5.722;2023-07-20T01:58:55;3.30;;;2.27;;
13222;SDS011;6676;45.192;5.722;2023-07-20T02:01:35;4.28;;;1.65;;
13222;SDS011;6676;45.192;5.722;2023-07-20T02:07:05;3.62;;;2.10;;
13222;SDS011;6676;45.192;5.722;2023-07-20T02:09:56;2.60;;;1.87;;
13222;SDS011;6676;45.192;5.722;2023-07-20T02:12:47;2.77;;;1.80;;
13222;SDS011;6676;45.192;5.722;2023-07-20T02:15:38;4.10;;;2.00;;
13222;SDS011;6676;45.192;5.722;2023-07-20T02:18:31;4.60;;;2.22;;
13222;SDS011;6676;45.192;5.722;2023-07-20T02:21:22;3.42;;;1.82;;
13222;SDS011;6676;45.192;5.722;2023-07-20T02:24:13;3.42;;;1.90;;
13222;SDS011;6676;45.192;5.722;2023-07-20T02:29:45;4.10;;;2.33;;
13222;SDS011;6676;45.192;5.722;2023-07-20T02:32:37;2.47;;;2.10;;
13222;SDS011;6676;45.192;5.722;2023-07-20T02:38:07;3.72;;;2.10;;
13222;SDS011;6676;45.192;5.722;2023-07-20T02:40:58;4.95;;;2.30;;
13222;SDS011;6676;45.192;5.722;2023-07-20T02:43:49;2.25;;;1.90;;
13222;SDS011;6676;45.192;5.722;2023-07-20T02:49:20;2.65;;;1.72;;
13222;SDS011;6676;45.192;5.722;2023-07-20T02:52:11;4.17;;;1.65;;
13222;SDS011;6676;45.192;5.722;2023-07-20T02:57:42;2.10;;;1.67;;
13222;SDS011;6676;45.192;5.722;2023-07-20T03:00:33;2.92;;;1.80;;
13222;SDS011;6676;45.192;5.722;2023-07-20T03:03:24;3.10;;;1.98;;
13222;SDS011;6676;45.192;5.722;2023-07-20T03:06:15;2.62;;;1.70;;
13222;SDS011;6676;45.192;5.722;2023-07-20T03:09:07;3.85;;;1.87;;
13222;SDS011;6676;45.192;5.722;2023-07-20T03:14:38;3.70;;;1.92;;
13222;SDS011;6676;45.192;5.722;2023-07-20T03:17:29;2.65;;;1.95;;
13222;SDS011;6676;45.192;5.722;2023-07-20T03:23:00;3.33;;;1.90;;
13222;SDS011;6676;45.192;5.722;2023-07-20T03:28:30;3.20;;;1.90;;
13222;SDS011;6676;45.192;5.722;2023-07-20T03:31:21;2.15;;;1.60;;
13222;SDS011;6676;45.192;5.722;2023-07-20T03:34:12;2.37;;;1.80;;
13222;SDS011;6676;45.192;5.722;2023-07-20T03:39:43;3.55;;;2.02;;
13222;SDS011;6676;45.192;5.722;2023-07-20T03:42:35;3.02;;;1.90;;
13222;SDS011;6676;45.192;5.722;2023-07-20T03:45:27;2.30;;;1.77;;
13222;SDS011;6676;45.192;5.722;2023-07-20T03:48:19;3.17;;;1.70;;
13222;SDS011;6676;45.192;5.722;2023-07-20T03:51:11;3.47;;;1.57;;
13222;SDS011;6676;45.192;5.722;2023-07-20T03:54:03;2.20;;;1.80;;
13222;SDS011;6676;45.192;5.722;2023-07-20T03:56:56;2.52;;;1.60;;
13222;SDS011;6676;45.192;5.722;2023-07-20T03:59:49;3.33;;;1.82;;
13222;SDS011;6676;45.192;5.722;2023-07-20T04:02:40;3.37;;;1.60;;
13222;SDS011;6676;45.192;5.722;2023-07-20T04:08:09;3.15;;;1.70;;
13222;SDS011;6676;45.192;5.722;2023-07-20T04:11:01;2.37;;;1.70;;
13222;SDS011;6676;45.192;5.722;2023-07-20T04:13:52;6.22;;;1.95;;
13222;SDS011;6676;45.192;5.722;2023-07-20T04:16:46;3.47;;;1.70;;
13222;SDS011;6676;45.192;5.722;2023-07-20T04:19:37;3.20;;;1.90;;
13222;SDS011;6676;45.192;5.722;2023-07-20T04:22:29;3.27;;;1.65;;
13222;SDS011;6676;45.192;5.722;2023-07-20T04:25:21;3.20;;;1.70;;
13222;SDS011;6676;45.192;5.722;2023-07-20T04:28:12;3.45;;;1.60;;
13222;SDS011;6676;45.192;5.722;2023-07-20T04:33:51;2.62;;;1.77;;
13222;SDS011;6676;45.192;5.722;2023-07-20T04:36:42;4.65;;;1.80;;
13222;SDS011;6676;45.192;5.722;2023-07-20T04:39:35;2.50;;;1.90;;
13222;SDS011;6676;45.192;5.722;2023-07-20T04:42:28;3.72;;;2.08;;
13222;SDS011;6676;45.192;5.722;2023-07-20T04:48:02;11.30;;;2.10;;
13222;SDS011;6676;45.192;5.722;2023-07-20T04:50:55;3.20;;;2.00;;
13222;SDS011;6676;45.192;5.722;2023-07-20T04:53:47;3.37;;;2.05;;
13222;SDS011;6676;45.192;5.722;2023-07-20T04:56:38;4.22;;;1.90;;
13222;SDS011;6676;45.192;5.722;2023-07-20T04:59:31;2.60;;;1.77;;
13222;SDS011;6676;45.192;5.722;2023-07-20T05:02:24;5.08;;;2.10;;
13222;SDS011;6676;45.192;5.722;2023-07-20T05:07:54;4.12;;;2.00;;
13222;SDS011;6676;45.192;5.722;2023-07-20T05:10:46;2.25;;;1.62;;
13222;SDS011;6676;45.192;5.722;2023-07-20T05:13:37;4.95;;;2.15;;
13222;SDS011;6676;45.192;5.722;2023-07-20T05:16:29;2.95;;;1.80;;
13222;SDS011;6676;45.192;5.722;2023-07-20T05:19:21;2.85;;;1.92;;
13222;SDS011;6676;45.192;5.722;2023-07-20T05:24:53;3.02;;;1.70;;
13222;SDS011;6676;45.192;5.722;2023-07-20T05:27:44;3.62;;;1.87;;
13222;SDS011;6676;45.192;5.722;2023-07-20T05:33:14;3.92;;;1.70;;
13222;SDS011;6676;45.192;5.722;2023-07-20T05:36:06;2.60;;;1.77;;
13222;SDS011;6676;45.192;5.722;2023-07-20T05:38:58;3.92;;;1.65;;
13222;SDS011;6676;45.192;5.722;2023-07-20T05:41:50;3.95;;;1.57;;
13222;SDS011;6676;45.192;5.722;2023-07-20T05:44:41;3.17;;;2.08;;
13222;SDS011;6676;45.192;5.722;2023-07-20T05:47:32;4.15;;;1.98;;
13222;SDS011;6676;45.192;5.722;2023-07-20T05:50:24;4.25;;;1.70;;
13222;SDS011;6676;45.192;5.722;2023-07-20T05:53:15;5.40;;;1.80;;
13222;SDS011;6676;45.192;5.722;2023-07-20T05:56:06;2.90;;;1.67;;
13222;SDS011;6676;45.192;5.722;2023-07-20T05:58:59;4.55;;;2.02;;
13222;SDS011;6676;45.192;5.722;2023-07-20T06:01:50;4.05;;;1.80;;
13222;SDS011;6676;45.192;5.722;2023-07-20T06:04:42;5.00;;;2.20;;
13222;SDS011;6676;45.192;5.722;2023-07-20T06:07:23;5.00;;;1.80;;
13222;SDS011;6676;45.192;5.722;2023-07-20T06:12:53;3.20;;;1.62;;
13222;SDS011;6676;45.192;5.722;2023-07-20T06:15:44;3.45;;;1.75;;
13222;SDS011;6676;45.192;5.722;2023-07-20T06:18:36;3.62;;;1.47;;
13222;SDS011;6676;45.192;5.722;2023-07-20T06:21:27;2.98;;;1.62;;
13222;SDS011;6676;45.192;5.722;2023-07-20T06:24:19;2.58;;;1.65;;
13222;SDS011;6676;45.192;5.722;2023-07-20T06:27:11;5.67;;;1.80;;
13222;SDS011;6676;45.192;5.722;2023-07-20T06:30:02;6.62;;;2.30;;
13222;SDS011;6676;45.192;5.722;2023-07-20T06:32:42;5.05;;;1.62;;
13222;SDS011;6676;45.192;5.722;2023-07-20T06:38:13;3.42;;;1.90;;
13222;SDS011;6676;45.192;5.722;2023-07-20T06:43:45;6.12;;;1.70;;
13222;SDS011;6676;45.192;5.722;2023-07-20T06:46:37;3.12;;;1.87;;
13222;SDS011;6676;45.192;5.722;2023-07-20T06:49:28;5.37;;;2.27;;
13222;SDS011;6676;45.192;5.722;2023-07-20T06:52:08;4.58;;;1.98;;
13222;SDS011;6676;45.192;5.722;2023-07-20T06:57:39;2.30;;;1.65;;
13222;SDS011;6676;45.192;5.722;2023-07-20T07:00:32;4.03;;;2.10;;
13222;SDS011;6676;45.192;5.722;2023-07-20T07:03:23;3.83;;;1.95;;
13222;SDS011;6676;45.192;5.722;2023-07-20T07:06:16;3.52;;;2.10;;
13222;SDS011;6676;45.192;5.722;2023-07-20T07:09:07;3.47;;;1.70;;
13222;SDS011;6676;45.192;5.722;2023-07-20T07:11:58;4.67;;;1.75;;
13222;SDS011;6676;45.192;5.722;2023-07-20T07:14:50;3.60;;;1.60;;
13222;SDS011;6676;45.192;5.722;2023-07-20T07:17:30;2.20;;;1.62;;
13222;SDS011;6676;45.192;5.722;2023-07-20T07:20:23;3.45;;;1.90;;
13222;SDS011;6676;45.192;5.722;2023-07-20T07:23:15;4.47;;;1.82;;
13222;SDS011;6676;45.192;5.722;2023-07-20T07:26:06;3.47;;;1.90;;
13222;SDS011;6676;45.192;5.722;2023-07-20T07:28:58;3.58;;;1.90;;
13222;SDS011;6676;45.192;5.722;2023-07-20T07:31:49;5.95;;;1.80;;
13222;SDS011;6676;45.192;5.722;2023-07-20T07:34:43;5.00;;;1.90;;
13222;SDS011;6676;45.192;5.722;2023-07-20T07:37:35;3.52;;;1.50;;
13222;SDS011;6676;45.192;5.722;2023-07-20T07:40:28;4.78;;;1.77;;
13222;SDS011;6676;45.192;5.722;2023-07-20T07:43:19;6.35;;;2.12;;
13222;SDS011;6676;45.192;5.722;2023-07-20T07:48:49;3.40;;;1.70;;
13222;SDS011;6676;45.192;5.722;2023-07-20T07:51:41;5.83;;;1.87;;
13222;SDS011;6676;45.192;5.722;2023-07-20T07:54:32;2.85;;;1.75;;
13222;SDS011;6676;45.192;5.722;2023-07-20T07:57:24;3.35;;;1.45;;
13222;SDS011;6676;45.192;5.722;2023-07-20T08:02:56;4.70;;;1.60;;
13222;SDS011;6676;45.192;5.722;2023-07-20T08:05:47;2.85;;;1.42;;
13222;SDS011;6676;45.192;5.722;2023-07-20T08:08:38;2.50;;;1.30;;
13222;SDS011;6676;45.192;5.722;2023-07-20T08:11:29;6.05;;;1.92;;
13222;SDS011;6676;45.192;5.722;2023-07-20T08:14:21;2.35;;;1.40;;
13222;SDS011;6676;45.192;5.722;2023-07-20T08:19:55;1.50;;;1.00;;
13222;SDS011;6676;45.192;5.722;2023-07-20T08:22:47;3.52;;;1.40;;
13222;SDS011;6676;45.192;5.722;2023-07-20T08:28:16;5.50;;;1.20;;
13222;SDS011;6676;45.192;5.722;2023-07-20T08:31:07;1.70;;;1.10;;
13222;SDS011;6676;45.192;5.722;2023-07-20T08:33:59;2.08;;;1.20;;
13222;SDS011;6676;45.192;5.722;2023-07-20T08:36:51;2.92;;;1.40;;
13222;SDS011;6676;45.192;5.722;2023-07-20T08:39:43;2.52;;;1.37;;
13222;SDS011;6676;45.192;5.722;2023-07-20T08:42:36;2.37;;;1.25;;
13222;SDS011;6676;45.192;5.722;2023-07-20T08:45:28;2.05;;;1.30;;
13222;SDS011;6676;45.192;5.722;2023-07-20T08:48:21;2.83;;;1.50;;
13222;SDS011;6676;45.192;5.722;2023-07-20T08:51:13;2.90;;;1.20;;
13222;SDS011;6676;45.192;5.722;2023-07-20T08:54:06;2.33;;;1.37;;
13222;SDS011;6676;45.192;5.722;2023-07-20T08:56:59;6.75;;;1.98;;
13222;SDS011;6676;45.192;5.722;2023-07-20T08:59:52;2.90;;;1.30;;
13222;SDS011;6676;45.192;5.722;2023-07-20T09:02:35;3.77;;;1.55;;
13222;SDS011;6676;45.192;5.722;2023-07-20T09:08:06;2.52;;;1.60;;
13222;SDS011;6676;45.192;5.722;2023-07-20T09:13:40;2.40;;;1.40;;
13222;SDS011;6676;45.192;5.722;2023-07-20T09:16:31;2.15;;;1.30;;
13222;SDS011;6676;45.192;5.722;2023-07-20T09:19:24;3.12;;;1.40;;
13222;SDS011;6676;45.192;5.722;2023-07-20T09:22:05;3.00;;;1.45;;
13222;SDS011;6676;45.192;5.722;2023-07-20T09:27:38;2.15;;;1.05;;
13222;SDS011;6676;45.192;5.722;2023-07-20T09:33:18;1.85;;;1.40;;
13222;SDS011;6676;45.192;5.722;2023-07-20T09:36:13;3.45;;;1.60;;
13222;SDS011;6676;45.192;5.722;2023-07-20T09:39:06;3.02;;;1.32;;
13222;SDS011;6676;45.192;5.722;2023-07-20T09:42:00;4.62;;;1.22;;
13222;SDS011;6676;45.192;5.722;2023-07-20T09:44:54;2.95;;;1.50;;
13222;SDS011;6676;45.192;5.722;2023-07-20T09:47:46;1.92;;;1.60;;
13222;SDS011;6676;45.192;5.722;2023-07-20T09:50:41;2.75;;;1.10;;
13222;SDS011;6676;45.192;5.722;2023-07-20T09:53:35;4.35;;;1.60;;
13222;SDS011;6676;45.192;5.722;2023-07-20T09:56:27;3.27;;;1.70;;
13222;SDS011;6676;45.192;5.722;2023-07-20T09:59:19;5.37;;;1.40;;
13222;SDS011;6676;45.192;5.722;2023-07-20T10:02:15;5.45;;;1.40;;
13222;SDS011;6676;45.192;5.722;2023-07-20T10:04:55;4.15;;;1.30;;
13222;SDS011;6676;45.192;5.722;2023-07-20T10:07:49;3.08;;;1.17;;
13222;SDS011;6676;45.192;5.722;2023-07-20T10:13:25;3.37;;;1.15;;
13222;SDS011;6676;45.192;5.722;2023-07-20T10:16:22;2.52;;;1.12;;
13222;SDS011;6676;45.192;5.722;2023-07-20T10:19:13;2.37;;;1.10;;
13222;SDS011;6676;45.192;5.722;2023-07-20T10:21:56;1.62;;;1.12;;
13222;SDS011;6676;45.192;5.722;2023-07-20T10:24:51;2.35;;;1.15;;
13222;SDS011;6676;45.192;5.722;2023-07-20T10:27:32;3.08;;;1.10;;
13222;SDS011;6676;45.192;5.722;2023-07-20T10:33:02;2.17;;;1.30;;
13222;SDS011;6676;45.192;5.722;2023-07-20T10:35:55;2.98;;;1.30;;
13222;SDS011;6676;45.192;5.722;2023-07-20T10:38:52;2.42;;;1.15;;
13222;SDS011;6676;45.192;5.722;2023-07-20T10:41:46;2.83;;;1.07;;
13222;SDS011;6676;45.192;5.722;2023-07-20T10:44:38;2.52;;;1.17;;
13222;SDS011;6676;45.192;5.722;2023-07-20T10:47:32;1.77;;;1.20;;
13222;SDS011;6676;45.192;5.722;2023-07-20T10:50:25;1.12;;;1.02;;
13222;SDS011;6676;45.192;5.722;2023-07-20T10:53:20;3.15;;;1.17;;
13222;SDS011;6676;45.192;5.722;2023-07-20T10:56:12;2.80;;;1.30;;
13222;SDS011;6676;45.192;5.722;2023-07-20T10:59:17;2.35;;;1.20;;
13222;SDS011;6676;45.192;5.722;2023-07-20T11:01:48;3.58;;;1.22;;
13222;SDS011;6676;45.192;5.722;2023-07-20T11:04:42;2.25;;;1.10;;
13222;SDS011;6676;45.192;5.722;2023-07-20T11:10:18;2.42;;;1.20;;
13222;SDS011;6676;45.192;5.722;2023-07-20T11:13:22;2.08;;;1.35;;
13222;SDS011;6676;45.192;5.722;2023-07-20T11:16:15;2.62;;;1.27;;
13222;SDS011;6676;45.192;5.722;2023-07-20T11:19:14;4.25;;;1.42;;
13222;SDS011;6676;45.192;5.722;2023-07-20T11:22:08;3.45;;;1.37;;
13222;SDS011;6676;45.192;5.722;2023-07-20T11:25:05;1.72;;;1.10;;
13222;SDS011;6676;45.192;5.722;2023-07-20T11:27:59;1.98;;;1.30;;
13222;SDS011;6676;45.192;5.722;2023-07-20T11:30:52;2.00;;;1.27;;
13222;SDS011;6676;45.192;5.722;2023-07-20T11:33:43;5.03;;;1.55;;
13222;SDS011;6676;45.192;5.722;2023-07-20T11:36:35;1.50;;;1.20;;
13222;SDS011;6676;45.192;5.722;2023-07-20T11:39:29;2.25;;;1.40;;
13222;SDS011;6676;45.192;5.722;2023-07-20T11:42:20;2.37;;;0.95;;
13222;SDS011;6676;45.192;5.722;2023-07-20T11:45:13;4.03;;;1.30;;
13222;SDS011;6676;45.192;5.722;2023-07-20T11:48:05;1.85;;;1.30;;
13222;SDS011;6676;45.192;5.722;2023-07-20T11:50:56;3.35;;;1.17;;
13222;SDS011;6676;45.192;5.722;2023-07-20T11:53:48;2.98;;;1.30;;
13222;SDS011;6676;45.192;5.722;2023-07-20T11:56:41;3.70;;;1.22;;
13222;SDS011;6676;45.192;5.722;2023-07-20T11:59:35;2.58;;;1.22;;
13222;SDS011;6676;45.192;5.722;2023-07-20T12:02:27;2.62;;;1.15;;
13222;SDS011;6676;45.192;5.722;2023-07-20T12:05:18;2.98;;;1.30;;
13222;SDS011;6676;45.192;5.722;2023-07-20T12:08:11;4.53;;;1.15;;
13222;SDS011;6676;45.192;5.722;2023-07-20T12:11:03;4.25;;;1.20;;
13222;SDS011;6676;45.192;5.722;2023-07-20T12:13:57;2.80;;;1.10;;
13222;SDS011;6676;45.192;5.722;2023-07-20T12:16:53;3.45;;;1.30;;
13222;SDS011;6676;45.192;5.722;2023-07-20T12:19:44;5.85;;;1.67;;
13222;SDS011;6676;45.192;5.722;2023-07-20T12:22:38;2.15;;;1.22;;
13222;SDS011;6676;45.192;5.722;2023-07-20T12:25:34;8.98;;;1.55;;
13222;SDS011;6676;45.192;5.722;2023-07-20T12:28:31;3.33;;;1.00;;
13222;SDS011;6676;45.192;5.722;2023-07-20T12:31:23;3.52;;;1.42;;
13222;SDS011;6676;45.192;5.722;2023-07-20T12:34:15;3.05;;;1.25;;
13222;SDS011;6676;45.192;5.722;2023-07-20T12:37:07;3.20;;;1.25;;
13222;SDS011;6676;45.192;5.722;2023-07-20T12:39:59;6.37;;;1.50;;
13222;SDS011;6676;45.192;5.722;2023-07-20T12:42:51;1.67;;;1.30;;
13222;SDS011;6676;45.192;5.722;2023-07-20T12:45:43;4.20;;;1.22;;
13222;SDS011;6676;45.192;5.722;2023-07-20T12:48:35;1.62;;;1.02;;
13222;SDS011;6676;45.192;5.722;2023-07-20T12:51:29;2.80;;;1.25;;
13222;SDS011;6676;45.192;5.722;2023-07-20T12:54:21;3.70;;;1.60;;
13222;SDS011;6676;45.192;5.722;2023-07-20T12:57:12;2.92;;;1.40;;
13222;SDS011;6676;45.192;5.722;2023-07-20T13:00:04;4.67;;;1.40;;
13222;SDS011;6676;45.192;5.722;2023-07-20T13:02:59;2.58;;;1.30;;
13222;SDS011;6676;45.192;5.722;2023-07-20T13:05:54;2.47;;;1.37;;
13222;SDS011;6676;45.192;5.722;2023-07-20T13:08:48;2.27;;;1.07;;
13222;SDS011;6676;45.192;5.722;2023-07-20T13:11:41;2.60;;;1.50;;
13222;SDS011;6676;45.192;5.722;2023-07-20T13:14:32;2.75;;;1.20;;
13222;SDS011;6676;45.192;5.722;2023-07-20T13:17:23;1.62;;;0.95;;
13222;SDS011;6676;45.192;5.722;2023-07-20T13:20:15;2.08;;;1.10;;
13222;SDS011;6676;45.192;5.722;2023-07-20T13:23:07;3.92;;;1.10;;
13222;SDS011;6676;45.192;5.722;2023-07-20T13:25:58;3.42;;;1.07;;
13222;SDS011;6676;45.192;5.722;2023-07-20T13:28:49;2.77;;;1.10;;
13222;SDS011;6676;45.192;5.722;2023-07-20T13:31:43;3.15;;;1.40;;
13222;SDS011;6676;45.192;5.722;2023-07-20T13:34:37;2.15;;;1.32;;
13222;SDS011;6676;45.192;5.722;2023-07-20T13:37:28;2.25;;;1.30;;
13222;SDS011;6676;45.192;5.722;2023-07-20T13:40:19;2.02;;;1.65;;
13222;SDS011;6676;45.192;5.722;2023-07-20T13:43:12;1.82;;;1.10;;
13222;SDS011;6676;45.192;5.722;2023-07-20T13:46:03;3.20;;;1.47;;
13222;SDS011;6676;45.192;5.722;2023-07-20T13:48:55;2.17;;;1.32;;
13222;SDS011;6676;45.192;5.722;2023-07-20T13:51:46;3.15;;;1.55;;
13222;SDS011;6676;45.192;5.722;2023-07-20T13:54:39;2.37;;;1.30;;
13222;SDS011;6676;45.192;5.722;2023-07-20T13:57:31;1.77;;;1.15;;
13222;SDS011;6676;45.192;5.722;2023-07-20T14:00:23;1.95;;;1.20;;
13222;SDS011;6676;45.192;5.722;2023-07-20T14:03:16;2.20;;;1.25;;
13222;SDS011;6676;45.192;5.722;2023-07-20T14:06:07;2.62;;;1.17;;
13222;SDS011;6676;45.192;5.722;2023-07-20T14:09:01;1.50;;;1.35;;
13222;SDS011;6676;45.192;5.722;2023-07-20T14:11:53;3.60;;;1.30;;
13222;SDS011;6676;45.192;5.722;2023-07-20T14:14:45;1.95;;;1.35;;
13222;SDS011;6676;45.192;5.722;2023-07-20T14:17:36;1.50;;;1.30;;
13222;SDS011;6676;45.192;5.722;2023-07-20T14:20:29;3.00;;;1.17;;
13222;SDS011;6676;45.192;5.722;2023-07-20T14:23:20;1.52;;;1.40;;
13222;SDS011;6676;45.192;5.722;2023-07-20T14:26:13;3.15;;;1.50;;
13222;SDS011;6676;45.192;5.722;2023-07-20T14:29:10;3.58;;;1.55;;
13222;SDS011;6676;45.192;5.722;2023-07-20T14:32:04;3.77;;;1.70;;
13222;SDS011;6676;45.192;5.722;2023-07-20T14:34:56;2.22;;;1.27;;
13222;SDS011;6676;45.192;5.722;2023-07-20T14:37:48;2.83;;;1.42;;
13222;SDS011;6676;45.192;5.722;2023-07-20T14:40:40;2.22;;;1.25;;
13222;SDS011;6676;45.192;5.722;2023-07-20T14:43:31;2.42;;;1.15;;
13222;SDS011;6676;45.192;5.722;2023-07-20T14:46:22;3.05;;;1.45;;
13222;SDS011;6676;45.192;5.722;2023-07-20T14:49:14;1.30;;;1.20;;
13222;SDS011;6676;45.192;5.722;2023-07-20T14:52:07;3.27;;;1.22;;
13222;SDS011;6676;45.192;5.722;2023-07-20T14:55:00;4.40;;;1.72;;
13222;SDS011;6676;45.192;5.722;2023-07-20T14:57:52;2.00;;;1.30;;
13222;SDS011;6676;45.192;5.722;2023-07-20T15:00:48;1.62;;;1.15;;
13222;SDS011;6676;45.192;5.722;2023-07-20T15:03:39;1.82;;;1.30;;
13222;SDS011;6676;45.192;5.722;2023-07-20T15:06:31;2.35;;;1.50;;
13222;SDS011;6676;45.192;5.722;2023-07-20T15:09:22;3.08;;;1.02;;
13222;SDS011;6676;45.192;5.722;2023-07-20T15:12:14;2.27;;;1.37;;
13222;SDS011;6676;45.192;5.722;2023-07-20T15:15:07;2.42;;;1.20;;
13222;SDS011;6676;45.192;5.722;2023-07-20T15:17:59;6.70;;;1.42;;
13222;SDS011;6676;45.192;5.722;2023-07-20T15:20:51;1.52;;;1.10;;
13222;SDS011;6676;45.192;5.722;2023-07-20T15:23:43;1.62;;;1.30;;
13222;SDS011;6676;45.192;5.722;2023-07-20T15:26:35;3.55;;;1.30;;
13222;SDS011;6676;45.192;5.722;2023-07-20T15:29:26;1.42;;;1.17;;
13222;SDS011;6676;45.192;5.722;2023-07-20T15:32:19;3.72;;;1.20;;
13222;SDS011;6676;45.192;5.722;2023-07-20T15:35:10;1.90;;;1.20;;
13222;SDS011;6676;45.192;5.722;2023-07-20T15:38:02;2.55;;;1.32;;
13222;SDS011;6676;45.192;5.722;2023-07-20T15:40:53;1.75;;;1.07;;
13222;SDS011;6676;45.192;5.722;2023-07-20T15:43:46;1.55;;;1.10;;
13222;SDS011;6676;45.192;5.722;2023-07-20T15:46:46;3.40;;;1.40;;
13222;SDS011;6676;45.192;5.722;2023-07-20T15:49:38;2.58;;;1.42;;
13222;SDS011;6676;45.192;5.722;2023-07-20T15:52:30;1.52;;;1.02;;
13222;SDS011;6676;45.192;5.722;2023-07-20T15:55:23;3.67;;;1.45;;
13222;SDS011;6676;45.192;5.722;2023-07-20T15:58:14;2.67;;;1.20;;
13222;SDS011;6676;45.192;5.722;2023-07-20T16:01:09;1.72;;;0.88;;
13222;SDS011;6676;45.192;5.722;2023-07-20T16:04:00;1.62;;;1.12;;
13222;SDS011;6676;45.192;5.722;2023-07-20T16:06:52;2.52;;;1.45;;
13222;SDS011;6676;45.192;5.722;2023-07-20T16:09:32;3.58;;;1.30;;
13222;SDS011;6676;45.192;5.722;2023-07-20T16:12:25;2.60;;;1.32;;
13222;SDS011;6676;45.192;5.722;2023-07-20T16:15:16;2.92;;;1.55;;
13222;SDS011;6676;45.192;5.722;2023-07-20T16:18:09;2.12;;;1.15;;
13222;SDS011;6676;45.192;5.722;2023-07-20T16:21:01;1.10;;;1.00;;
13222;SDS011;6676;45.192;5.722;2023-07-20T16:23:53;2.90;;;1.32;;
13222;SDS011;6676;45.192;5.722;2023-07-20T16:26:44;1.55;;;1.10;;
13222;SDS011;6676;45.192;5.722;2023-07-20T16:29:36;2.10;;;1.10;;
13222;SDS011;6676;45.192;5.722;2023-07-20T16:32:29;3.22;;;1.35;;
13222;SDS011;6676;45.192;5.722;2023-07-20T16:35:20;2.75;;;1.00;;
13222;SDS011;6676;45.192;5.722;2023-07-20T16:38:13;1.65;;;1.20;;
13222;SDS011;6676;45.192;5.722;2023-07-20T16:41:06;1.57;;;0.98;;
13222;SDS011;6676;45.192;5.722;2023-07-20T16:43:58;3.02;;;1.10;;
13222;SDS011;6676;45.192;5.722;2023-07-20T16:46:51;4.47;;;1.00;;
13222;SDS011;6676;45.192;5.722;2023-07-20T16:49:44;3.05;;;1.00;;
13222;SDS011;6676;45.192;5.722;2023-07-20T16:52:35;2.42;;;0.85;;
13222;SDS011;6676;45.192;5.722;2023-07-20T16:55:27;1.45;;;1.00;;
13222;SDS011;6676;45.192;5.722;2023-07-20T16:58:18;2.98;;;1.00;;
13222;SDS011;6676;45.192;5.722;2023-07-20T17:01:09;2.20;;;0.90;;
13222;SDS011;6676;45.192;5.722;2023-07-20T17:04:01;1.27;;;0.90;;
13222;SDS011;6676;45.192;5.722;2023-07-20T17:06:53;4.80;;;1.10;;
13222;SDS011;6676;45.192;5.722;2023-07-20T17:09:49;2.75;;;1.00;;
13222;SDS011;6676;45.192;5.722;2023-07-20T17:12:40;2.47;;;1.10;;
13222;SDS011;6676;45.192;5.722;2023-07-20T17:15:32;2.00;;;0.90;;
13222;SDS011;6676;45.192;5.722;2023-07-20T17:18:24;1.50;;;0.80;;
13222;SDS011;6676;45.192;5.722;2023-07-20T17:21:15;2.55;;;1.00;;
13222;SDS011;6676;45.192;5.722;2023-07-20T17:24:08;1.12;;;0.90;;
13222;SDS011;6676;45.192;5.722;2023-07-20T17:27:00;1.15;;;1.00;;
13222;SDS011;6676;45.192;5.722;2023-07-20T17:29:53;1.05;;;0.70;;
13222;SDS011;6676;45.192;5.722;2023-07-20T17:32:48;1.22;;;0.85;;
13222;SDS011;6676;45.192;5.722;2023-07-20T17:35:40;1.87;;;0.80;;
13222;SDS011;6676;45.192;5.722;2023-07-20T17:38:31;1.10;;;0.90;;
13222;SDS011;6676;45.192;5.722;2023-07-20T17:41:25;3.00;;;1.02;;
13222;SDS011;6676;45.192;5.722;2023-07-20T17:44:16;1.27;;;0.72;;
13222;SDS011;6676;45.192;5.722;2023-07-20T17:47:08;2.15;;;0.90;;
13222;SDS011;6676;45.192;5.722;2023-07-20T17:50:01;1.77;;;0.88;;
13222;SDS011;6676;45.192;5.722;2023-07-20T17:52:52;2.45;;;1.02;;
13222;SDS011;6676;45.192;5.722;2023-07-20T17:55:44;1.75;;;0.80;;
13222;SDS011;6676;45.192;5.722;2023-07-20T17:58:38;1.67;;;0.95;;
13222;SDS011;6676;45.192;5.722;2023-07-20T18:01:29;1.82;;;0.72;;
13222;SDS011;6676;45.192;5.722;2023-07-20T18:04:21;1.22;;;0.68;;
13222;SDS011;6676;45.192;5.722;2023-07-20T18:07:12;2.67;;;0.88;;
13222;SDS011;6676;45.192;5.722;2023-07-20T18:10:04;2.42;;;0.90;;
13222;SDS011;6676;45.192;5.722;2023-07-20T18:12:59;3.17;;;0.90;;
13222;SDS011;6676;45.192;5.722;2023-07-20T18:15:54;3.08;;;0.72;;
13222;SDS011;6676;45.192;5.722;2023-07-20T18:18:45;4.03;;;0.72;;
13222;SDS011;6676;45.192;5.722;2023-07-20T18:21:37;1.55;;;0.80;;
13222;SDS011;6676;45.192;5.722;2023-07-20T18:24:29;3.05;;;1.02;;
13222;SDS011;6676;45.192;5.722;2023-07-20T18:27:20;1.50;;;0.90;;
13222;SDS011;6676;45.192;5.722;2023-07-20T18:30:12;1.32;;;0.70;;
13222;SDS011;6676;45.192;5.722;2023-07-20T18:33:06;2.08;;;0.93;;
13222;SDS011;6676;45.192;5.722;2023-07-20T18:35:57;1.30;;;0.93;;
13222;SDS011;6676;45.192;5.722;2023-07-20T18:38:48;2.85;;;1.05;;
13222;SDS011;6676;45.192;5.722;2023-07-20T18:41:40;1.47;;;0.90;;
13222;SDS011;6676;45.192;5.722;2023-07-20T18:44:32;1.20;;;0.80;;
13222;SDS011;6676;45.192;5.722;2023-07-20T18:47:23;1.30;;;0.88;;
13222;SDS011;6676;45.192;5.722;2023-07-20T18:50:15;1.30;;;0.70;;
13222;SDS011;6676;45.192;5.722;2023-07-20T18:53:07;2.08;;;0.80;;
13222;SDS011;6676;45.192;5.722;2023-07-20T18:55:59;3.87;;;0.90;;
13222;SDS011;6676;45.192;5.722;2023-07-20T18:58:51;1.35;;;0.80;;